createdAt,value
2019-05-23T00:01:48.356Z,101144.48
2019-05-23T00:06:52.061Z,101146.72
2019-05-23T00:11:57.537Z,101138.58
2019-05-23T00:17:02.286Z,101144.67
2019-05-23T00:22:08.124Z,101139.92
2019-05-23T00:27:14.012Z,101143.08
2019-05-23T00:32:37.586Z,101137.88
2019-05-23T00:37:43.116Z,101135.30
2019-05-23T00:42:46.791Z,101136.26
2019-05-23T00:47:51.788Z,101132.72
2019-05-23T00:52:56.769Z,101132.39
2019-05-23T00:58:01.450Z,101128.05
2019-05-23T01:03:05.318Z,101123.30
2019-05-23T01:08:09.005Z,101129.81
2019-05-23T01:13:15.230Z,101128.08
2019-05-23T01:18:19.013Z,101134.58
2019-05-23T01:23:24.620Z,101138.94
2019-05-23T01:28:28.004Z,101140.77
2019-05-23T01:33:33.226Z,101145.15
2019-05-23T01:38:38.197Z,101143.84
2019-05-23T01:43:42.200Z,101141.69
2019-05-23T01:48:46.763Z,101143.46
2019-05-23T01:53:51.055Z,101141.75
2019-05-23T01:58:55.125Z,101146.09
2019-05-23T02:03:58.922Z,101142.19
2019-05-23T02:09:02.836Z,101142.23
2019-05-23T02:14:08.023Z,101144.41
2019-05-23T02:19:13.655Z,101143.09
2019-05-23T02:24:17.203Z,101145.74
2019-05-23T02:29:21.578Z,101145.27
2019-05-23T02:34:25.442Z,101143.14
2019-05-23T02:39:45.263Z,101137.91
2019-05-23T02:44:50.349Z,101131.83
2019-05-23T02:49:55.710Z,101131.41
2019-05-23T02:54:59.578Z,101129.23
2019-05-23T03:00:53.410Z,101125.78
2019-05-23T03:05:50.053Z,101117.94
2019-05-23T03:11:01.347Z,101118.39
2019-05-23T03:16:05.966Z,101116.21
2019-05-23T03:21:09.615Z,101111.89
2019-05-23T03:26:19.313Z,101104.08
2019-05-23T03:31:30.711Z,101114.92
2019-05-23T03:36:31.429Z,101113.17
2019-05-23T03:41:35.320Z,101112.33
2019-05-23T03:46:40.454Z,101118.38
2019-05-23T03:51:44.866Z,101112.32
2019-05-23T03:56:49.122Z,101110.13
2019-05-23T04:01:55.059Z,101112.33
2019-05-23T04:06:59.719Z,101110.57
2019-05-23T04:12:03.339Z,101114.92
2019-05-23T04:17:07.695Z,101113.62
2019-05-23T04:22:11.296Z,101111.89
2019-05-23T04:27:14.859Z,101108.84
2019-05-23T04:32:18.400Z,101107.55
2019-05-23T04:37:21.837Z,101107.13
2019-05-23T04:42:25.469Z,101105.36
2019-05-23T04:47:28.961Z,101098.84
2019-05-23T04:52:33.255Z,101104.48
2019-05-23T04:57:37.641Z,101103.62
2019-05-23T05:02:41.422Z,101107.97
2019-05-23T05:07:45.412Z,101104.92
2019-05-23T05:12:49.138Z,101102.31
2019-05-23T05:17:52.849Z,101104.90
2019-05-23T05:22:57.128Z,101104.87
2019-05-23T05:28:01.102Z,101113.97
2019-05-23T05:33:05.600Z,101119.16
2019-05-23T05:38:09.325Z,101109.17
2019-05-23T05:43:13.128Z,101105.20
2019-05-23T05:48:16.632Z,101110.38
2019-05-23T05:53:20.074Z,101116.86
2019-05-23T05:58:23.509Z,101125.95
2019-05-23T06:03:27.347Z,101123.73
2019-05-23T06:08:32.508Z,101126.72
2019-05-23T06:13:36.193Z,101130.56
2019-05-23T06:18:39.704Z,101130.88
2019-05-23T06:23:43.866Z,101128.59
2019-05-23T06:28:47.313Z,101129.38
2019-05-23T06:33:51.641Z,101135.34
2019-05-23T06:38:56.308Z,101132.59
2019-05-23T06:43:59.769Z,101132.41
2019-05-23T06:49:03.215Z,101127.36
2019-05-23T06:54:06.634Z,101129.16
2019-05-23T06:59:10.426Z,101124.85
2019-05-23T07:04:14.010Z,101122.17
2019-05-23T07:09:19.368Z,101122.83
2019-05-23T07:14:22.802Z,101126.79
2019-05-23T07:19:26.308Z,101128.72
2019-05-23T07:24:29.902Z,101118.11
2019-05-23T07:29:34.763Z,101106.31
2019-05-23T07:34:38.201Z,101115.59
2019-05-23T07:39:42.119Z,101122.64
2019-05-23T07:44:48.622Z,101122.47
2019-05-23T07:49:52.212Z,101125.54
2019-05-23T07:54:57.300Z,101121.26
2019-05-23T08:00:01.811Z,101114.23
2019-05-23T08:05:08.512Z,101112.80
2019-05-23T08:10:12.603Z,101112.69
2019-05-23T08:15:18.422Z,101116.86
2019-05-23T08:20:22.665Z,101119.15
2019-05-23T08:25:26.565Z,101116.98
2019-05-23T08:30:30.337Z,101110.92
2019-05-23T08:35:33.876Z,101106.83
2019-05-23T08:40:37.875Z,101108.66
2019-05-23T08:45:41.398Z,101103.69
2019-05-23T08:50:45.211Z,101116.08
2019-05-23T08:55:49.888Z,101112.44
2019-05-23T09:00:54.155Z,101109.38
2019-05-23T09:05:57.850Z,101105.45
2019-05-23T09:11:01.468Z,101091.33
2019-05-23T09:16:05.106Z,101086.77
2019-05-23T09:21:08.728Z,101086.77
2019-05-23T09:26:12.734Z,101081.78
2019-05-23T09:31:16.611Z,101081.78
2019-05-23T09:36:20.564Z,101079.78
2019-05-23T09:41:24.074Z,101088.05
2019-05-23T09:46:27.517Z,101072.46
2019-05-23T09:51:31.028Z,101077.31
2019-05-23T09:56:34.542Z,101070.73
2019-05-23T10:01:38.053Z,101065.41
2019-05-23T10:06:41.722Z,101054.09
2019-05-23T10:11:45.255Z,101063.78
2019-05-23T10:16:49.168Z,101062.50
2019-05-23T10:21:52.658Z,101058.04
2019-05-23T10:26:56.088Z,101049.85
2019-05-23T10:31:59.697Z,101055.39
2019-05-23T10:37:04.786Z,101041.34
2019-05-23T10:42:08.274Z,101042.05
2019-05-23T10:47:11.685Z,101038.88
2019-05-23T10:52:15.109Z,101030.36
2019-05-23T10:57:18.653Z,101027.59
2019-05-23T11:02:22.216Z,101014.42
2019-05-23T11:07:25.645Z,101024.72
2019-05-23T11:12:29.382Z,101014.13
2019-05-23T11:17:33.202Z,101015.74
2019-05-23T11:22:36.992Z,101011.07
2019-05-23T11:27:40.678Z,100998.62
2019-05-23T11:32:44.241Z,101000.41
2019-05-23T11:37:47.676Z,100993.18
2019-05-23T11:42:52.734Z,100987.70
2019-05-23T11:47:57.674Z,100985.38
2019-05-23T11:53:01.180Z,100981.72
2019-05-23T11:58:04.982Z,100975.27
2019-05-23T12:03:08.459Z,100965.68
2019-05-23T12:08:11.988Z,100963.64
2019-05-23T12:13:15.512Z,100968.17
2019-05-23T12:18:19.120Z,100957.53
2019-05-23T12:23:22.600Z,100963.32
2019-05-23T12:28:26.363Z,100959.42
2019-05-23T12:33:29.862Z,100958.39
2019-05-23T12:38:33.462Z,100957.53
2019-05-23T12:43:36.914Z,100944.50
2019-05-23T12:48:42.037Z,100933.03
2019-05-23T12:53:46.130Z,100922.08
2019-05-23T12:58:49.699Z,100933.14
2019-05-23T13:03:53.644Z,100921.09
2019-05-23T13:08:57.144Z,100918.97
2019-05-23T13:14:00.586Z,100918.91
2019-05-23T13:19:04.391Z,100912.69
2019-05-23T13:24:08.019Z,100918.56
2019-05-23T13:29:11.893Z,100902.72
2019-05-23T13:34:15.384Z,100901.48
2019-05-23T13:39:20.524Z,100900.50
2019-05-23T13:44:33.436Z,100904.95
2019-05-23T13:49:29.194Z,100899.56
2019-05-23T13:54:36.263Z,100898.19
2019-05-23T13:59:38.836Z,100885.16
2019-05-23T14:04:42.450Z,100890.06
2019-05-23T14:09:46.112Z,100889.75
2019-05-23T14:14:49.684Z,100881.83
2019-05-23T14:19:53.179Z,100867.93
2019-05-23T14:24:56.617Z,100859.66
2019-05-23T14:30:10.942Z,100869.52
2019-05-23T14:35:06.506Z,100864.42
2019-05-23T14:40:11.420Z,100857.52
2019-05-23T14:45:34.235Z,100856.98
2019-05-23T14:50:55.609Z,100858.38
2019-05-23T14:55:59.264Z,100857.39
2019-05-23T15:01:04.551Z,100858.86
2019-05-23T15:06:08.080Z,100849.22
2019-05-23T15:11:11.510Z,100845.17
2019-05-23T15:16:16.410Z,100833.63
2019-05-23T15:21:19.897Z,100838.44
2019-05-23T15:26:24.197Z,100832.42
2019-05-23T15:31:28.345Z,100833.53
2019-05-23T15:36:31.777Z,100829.38
2019-05-23T15:41:35.202Z,100820.01
2019-05-23T15:46:38.635Z,100820.23
2019-05-23T15:51:44.102Z,100822.42
2019-05-23T15:56:51.933Z,100809.20
2019-05-23T16:02:13.082Z,100802.69
2019-05-23T16:07:17.375Z,100802.81
2019-05-23T16:12:21.239Z,100803.77
2019-05-23T16:17:25.075Z,100799.59
2019-05-23T16:22:28.862Z,100797.12
2019-05-23T16:27:32.505Z,100794.91
2019-05-23T16:32:35.911Z,100786.42
2019-05-23T16:37:39.356Z,100784.62
2019-05-23T16:42:42.791Z,100792.56
2019-05-23T16:47:46.281Z,100790.53
2019-05-23T16:52:49.841Z,100784.67
2019-05-23T16:57:57.675Z,100782.91
2019-05-23T17:03:02.806Z,100783.36
2019-05-23T17:08:07.878Z,100776.23
2019-05-23T17:13:18.853Z,100778.41
2019-05-23T17:18:23.981Z,100776.11
2019-05-23T17:23:46.974Z,100774.47
2019-05-23T17:28:52.060Z,100777.44
2019-05-23T17:33:55.503Z,100770.53
2019-05-23T17:38:58.986Z,100771.02
2019-05-23T17:44:02.492Z,100765.70
2019-05-23T17:49:06.758Z,100761.05
2019-05-23T17:54:10.927Z,100761.41
2019-05-23T17:59:14.429Z,100754.66
2019-05-23T18:04:18.666Z,100760.92
2019-05-23T18:09:22.298Z,100751.98
2019-05-23T18:14:26.036Z,100760.09
2019-05-23T18:19:30.311Z,100757.84
2019-05-23T18:24:35.956Z,100750.17
2019-05-23T18:29:39.410Z,100751.72
2019-05-23T18:34:44.580Z,100751.72
2019-05-23T18:39:49.195Z,100748.73
2019-05-23T18:44:52.818Z,100748.69
2019-05-23T18:49:57.265Z,100750.58
2019-05-23T18:55:01.481Z,100746.03
2019-05-23T19:00:06.904Z,100745.48
2019-05-23T19:05:12.510Z,100741.35
2019-05-23T19:10:16.673Z,100744.83
2019-05-23T19:15:20.423Z,100751.55
2019-05-23T19:20:23.929Z,100756.19
2019-05-23T19:25:27.440Z,100754.88
2019-05-23T19:30:31.310Z,100755.30
2019-05-23T19:35:34.787Z,100748.19
2019-05-23T19:40:39.615Z,100753.16
2019-05-23T19:45:43.990Z,100757.45
2019-05-23T19:50:47.823Z,100763.55
2019-05-23T19:55:51.507Z,100758.70
2019-05-23T20:00:55.887Z,100756.53
2019-05-23T20:06:00.104Z,100754.33
2019-05-23T20:11:03.522Z,100756.02
2019-05-23T20:16:07.660Z,100755.67
2019-05-23T20:21:11.443Z,100757.39
2019-05-23T20:26:14.861Z,100759.50
2019-05-23T20:31:18.509Z,100760.25
2019-05-23T20:36:22.264Z,100766.49
2019-05-23T20:41:25.838Z,100762.86
2019-05-23T20:46:29.413Z,100761.19
2019-05-23T20:51:33.160Z,100763.73
2019-05-23T20:56:36.587Z,100761.84
2019-05-23T21:01:41.284Z,100761.11
2019-05-23T21:06:44.822Z,100766.45
2019-05-23T21:11:48.345Z,100782.77
2019-05-23T21:16:51.848Z,100779.53
2019-05-23T21:21:55.344Z,100766.97
2019-05-23T21:26:59.570Z,100780.25
2019-05-23T21:32:03.028Z,100777.64
2019-05-23T21:37:06.612Z,100774.03
2019-05-23T21:42:10.105Z,100774.39
2019-05-23T21:47:13.610Z,100769.11
2019-05-23T21:52:17.369Z,100774.66
2019-05-23T21:57:20.814Z,100769.40
2019-05-23T22:02:28.582Z,100761.64
2019-05-23T22:07:32.372Z,100770.44
2019-05-23T22:12:35.800Z,100769.68
2019-05-23T22:17:40.262Z,100769.25
2019-05-23T22:22:43.758Z,100766.27
2019-05-23T22:27:47.262Z,100769.34
2019-05-23T22:32:50.839Z,100760.51
2019-05-23T22:37:54.526Z,100758.98
2019-05-23T22:42:58.544Z,100765.55
2019-05-23T22:48:02.262Z,100764.41
2019-05-23T22:53:05.793Z,100766.63
2019-05-23T22:58:09.363Z,100764.32
2019-05-23T23:03:12.881Z,100770.58
2019-05-23T23:08:17.248Z,100766.39
2019-05-23T23:13:36.100Z,100767.24
2019-05-23T23:18:25.917Z,100765.78
2019-05-23T23:23:29.356Z,100767.09
2019-05-23T23:28:33.375Z,100776.48
2019-05-23T23:33:36.821Z,100775.83
2019-05-23T23:38:40.281Z,100771.09
2019-05-23T23:43:57.966Z,100764.53
2019-05-23T23:49:06.600Z,100760.30
2019-05-23T23:54:27.977Z,100759.58
2019-05-23T23:59:30.738Z,100754.11
